sensor_id;sensor_type;location;lat;lon;timestamp;P1;durP1;ratioP1;P2;durP2;ratioP2
40601;SDS011;26310;50.278;19.032;2022-07-25T00:04:04;6.90;;;4.27;;
40601;SDS011;26310;50.278;19.032;2022-07-25T00:09:12;5.63;;;3.77;;
40601;SDS011;26310;50.278;19.032;2022-07-25T00:14:15;6.60;;;3.33;;
40601;SDS011;26310;50.278;19.032;2022-07-25T00:19:18;6.83;;;3.50;;
40601;SDS011;26310;50.278;19.032;2022-07-25T00:24:21;7.00;;;3.57;;
40601;SDS011;26310;50.278;19.032;2022-07-25T00:29:23;5.30;;;3.37;;
40601;SDS011;26310;50.278;19.032;2022-07-25T00:34:26;5.60;;;3.67;;
40601;SDS011;26310;50.278;19.032;2022-07-25T00:39:29;5.90;;;3.90;;
40601;SDS011;26310;50.278;19.032;2022-07-25T00:44:36;5.37;;;3.10;;
40601;SDS011;26310;50.278;19.032;2022-07-25T00:49:38;5.80;;;3.40;;
40601;SDS011;26310;50.278;19.032;2022-07-25T00:54:41;7.17;;;3.30;;
40601;SDS011;26310;50.278;19.032;2022-07-25T00:59:45;5.00;;;3.73;;
40601;SDS011;26310;50.278;19.032;2022-07-25T01:04:48;6.03;;;2.97;;
40601;SDS011;26310;50.278;19.032;2022-07-25T01:09:51;4.70;;;3.20;;
40601;SDS011;26310;50.278;19.032;2022-07-25T01:14:53;4.73;;;2.93;;
40601;SDS011;26310;50.278;19.032;2022-07-25T01:19:57;5.23;;;3.40;;
40601;SDS011;26310;50.278;19.032;2022-07-25T01:25:00;6.97;;;3.47;;
40601;SDS011;26310;50.278;19.032;2022-07-25T01:30:03;9.07;;;4.13;;
40601;SDS011;26310;50.278;19.032;2022-07-25T01:35:07;4.83;;;3.30;;
40601;SDS011;26310;50.278;19.032;2022-07-25T01:40:10;5.80;;;4.10;;
40601;SDS011;26310;50.278;19.032;2022-07-25T01:45:13;6.50;;;4.43;;
40601;SDS011;26310;50.278;19.032;2022-07-25T01:50:16;5.97;;;4.13;;
40601;SDS011;26310;50.278;19.032;2022-07-25T01:55:19;7.10;;;3.83;;
40601;SDS011;26310;50.278;19.032;2022-07-25T02:00:22;6.40;;;3.90;;
40601;SDS011;26310;50.278;19.032;2022-07-25T02:05:25;6.30;;;4.10;;
40601;SDS011;26310;50.278;19.032;2022-07-25T02:10:27;8.87;;;4.83;;
40601;SDS011;26310;50.278;19.032;2022-07-25T02:15:30;8.23;;;4.33;;
40601;SDS011;26310;50.278;19.032;2022-07-25T02:20:33;7.40;;;4.40;;
40601;SDS011;26310;50.278;19.032;2022-07-25T02:25:36;6.63;;;4.93;;
40601;SDS011;26310;50.278;19.032;2022-07-25T02:30:38;7.37;;;4.03;;
40601;SDS011;26310;50.278;19.032;2022-07-25T02:35:41;9.20;;;4.33;;
40601;SDS011;26310;50.278;19.032;2022-07-25T02:40:48;5.13;;;4.27;;
40601;SDS011;26310;50.278;19.032;2022-07-25T02:45:51;6.67;;;4.40;;
40601;SDS011;26310;50.278;19.032;2022-07-25T02:50:54;6.97;;;3.90;;
40601;SDS011;26310;50.278;19.032;2022-07-25T02:55:57;5.37;;;3.80;;
40601;SDS011;26310;50.278;19.032;2022-07-25T03:01:00;8.73;;;4.03;;
40601;SDS011;26310;50.278;19.032;2022-07-25T03:06:03;8.10;;;4.40;;
40601;SDS011;26310;50.278;19.032;2022-07-25T03:11:06;6.37;;;4.73;;
40601;SDS011;26310;50.278;19.032;2022-07-25T03:16:09;5.03;;;4.43;;
40601;SDS011;26310;50.278;19.032;2022-07-25T03:21:12;7.77;;;4.40;;
40601;SDS011;26310;50.278;19.032;2022-07-25T03:26:15;6.13;;;4.50;;
40601;SDS011;26310;50.278;19.032;2022-07-25T03:31:18;6.33;;;4.37;;
40601;SDS011;26310;50.278;19.032;2022-07-25T03:36:20;9.00;;;4.23;;
40601;SDS011;26310;50.278;19.032;2022-07-25T03:41:24;7.60;;;4.43;;
40601;SDS011;26310;50.278;19.032;2022-07-25T03:46:28;8.50;;;4.03;;
40601;SDS011;26310;50.278;19.032;2022-07-25T03:51:31;7.13;;;4.50;;
40601;SDS011;26310;50.278;19.032;2022-07-25T03:56:38;7.23;;;4.00;;
40601;SDS011;26310;50.278;19.032;2022-07-25T04:01:49;8.03;;;4.63;;
40601;SDS011;26310;50.278;19.032;2022-07-25T04:06:52;7.57;;;4.83;;
40601;SDS011;26310;50.278;19.032;2022-07-25T04:11:55;9.10;;;4.67;;
40601;SDS011;26310;50.278;19.032;2022-07-25T04:16:58;8.33;;;4.17;;
40601;SDS011;26310;50.278;19.032;2022-07-25T04:22:01;6.73;;;4.07;;
40601;SDS011;26310;50.278;19.032;2022-07-25T04:27:03;6.90;;;3.90;;
40601;SDS011;26310;50.278;19.032;2022-07-25T04:32:06;5.53;;;3.47;;
40601;SDS011;26310;50.278;19.032;2022-07-25T04:37:09;6.07;;;3.73;;
40601;SDS011;26310;50.278;19.032;2022-07-25T04:42:12;6.27;;;3.57;;
40601;SDS011;26310;50.278;19.032;2022-07-25T04:47:15;5.83;;;3.87;;
40601;SDS011;26310;50.278;19.032;2022-07-25T04:52:17;6.27;;;4.60;;
40601;SDS011;26310;50.278;19.032;2022-07-25T04:57:20;6.50;;;3.97;;
40601;SDS011;26310;50.278;19.032;2022-07-25T05:02:25;8.03;;;3.60;;
40601;SDS011;26310;50.278;19.032;2022-07-25T05:07:28;7.97;;;3.27;;
40601;SDS011;26310;50.278;19.032;2022-07-25T05:12:31;5.43;;;3.40;;
40601;SDS011;26310;50.278;19.032;2022-07-25T05:17:34;6.07;;;3.27;;
40601;SDS011;26310;50.278;19.032;2022-07-25T05:22:36;5.40;;;3.27;;
40601;SDS011;26310;50.278;19.032;2022-07-25T05:27:39;5.87;;;2.80;;
40601;SDS011;26310;50.278;19.032;2022-07-25T05:32:42;5.73;;;3.40;;
40601;SDS011;26310;50.278;19.032;2022-07-25T05:37:45;5.23;;;3.03;;
40601;SDS011;26310;50.278;19.032;2022-07-25T05:42:48;7.67;;;2.63;;
40601;SDS011;26310;50.278;19.032;2022-07-25T05:47:52;5.45;;;2.85;;
40601;SDS011;26310;50.278;19.032;2022-07-25T05:52:54;4.10;;;2.70;;
40601;SDS011;26310;50.278;19.032;2022-07-25T05:57:57;3.88;;;2.40;;
40601;SDS011;26310;50.278;19.032;2022-07-25T06:03:03;5.22;;;2.60;;
40601;SDS011;26310;50.278;19.032;2022-07-25T06:08:05;4.45;;;2.42;;
40601;SDS011;26310;50.278;19.032;2022-07-25T06:13:08;4.25;;;2.30;;
40601;SDS011;26310;50.278;19.032;2022-07-25T06:18:11;2.42;;;2.00;;
40601;SDS011;26310;50.278;19.032;2022-07-25T06:23:14;3.72;;;2.50;;
40601;SDS011;26310;50.278;19.032;2022-07-25T06:28:17;4.10;;;2.65;;
40601;SDS011;26310;50.278;19.032;2022-07-25T06:33:20;2.53;;;1.90;;
40601;SDS011;26310;50.278;19.032;2022-07-25T06:38:23;3.13;;;2.10;;
40601;SDS011;26310;50.278;19.032;2022-07-25T06:43:25;3.15;;;2.40;;
40601;SDS011;26310;50.278;19.032;2022-07-25T06:48:28;3.53;;;2.08;;
40601;SDS011;26310;50.278;19.032;2022-07-25T06:53:31;3.40;;;2.00;;
40601;SDS011;26310;50.278;19.032;2022-07-25T06:58:34;3.67;;;2.40;;
40601;SDS011;26310;50.278;19.032;2022-07-25T07:03:37;3.03;;;1.90;;
40601;SDS011;26310;50.278;19.032;2022-07-25T07:08:41;2.70;;;2.10;;
40601;SDS011;26310;50.278;19.032;2022-07-25T07:13:43;4.30;;;2.35;;
40601;SDS011;26310;50.278;19.032;2022-07-25T07:18:46;3.85;;;2.10;;
40601;SDS011;26310;50.278;19.032;2022-07-25T07:23:50;2.30;;;1.73;;
40601;SDS011;26310;50.278;19.032;2022-07-25T07:28:54;2.45;;;1.65;;
40601;SDS011;26310;50.278;19.032;2022-07-25T07:33:56;1.90;;;1.50;;
40601;SDS011;26310;50.278;19.032;2022-07-25T07:39:00;2.75;;;1.80;;
40601;SDS011;26310;50.278;19.032;2022-07-25T07:44:03;3.45;;;1.90;;
40601;SDS011;26310;50.278;19.032;2022-07-25T07:49:06;5.88;;;1.90;;
40601;SDS011;26310;50.278;19.032;2022-07-25T07:54:10;2.58;;;1.67;;
40601;SDS011;26310;50.278;19.032;2022-07-25T07:59:31;2.45;;;1.58;;
40601;SDS011;26310;50.278;19.032;2022-07-25T08:04:34;2.88;;;1.83;;
40601;SDS011;26310;50.278;19.032;2022-07-25T08:09:36;4.03;;;1.40;;
40601;SDS011;26310;50.278;19.032;2022-07-25T08:14:39;1.85;;;1.45;;
40601;SDS011;26310;50.278;19.032;2022-07-25T08:19:42;1.98;;;1.27;;
40601;SDS011;26310;50.278;19.032;2022-07-25T08:24:45;1.85;;;1.33;;
40601;SDS011;26310;50.278;19.032;2022-07-25T08:29:47;3.35;;;1.85;;
40601;SDS011;26310;50.278;19.032;2022-07-25T08:34:50;3.42;;;1.70;;
40601;SDS011;26310;50.278;19.032;2022-07-25T08:39:53;3.10;;;1.60;;
40601;SDS011;26310;50.278;19.032;2022-07-25T08:44:57;2.95;;;1.52;;
40601;SDS011;26310;50.278;19.032;2022-07-25T08:50:04;1.20;;;1.02;;
40601;SDS011;26310;50.278;19.032;2022-07-25T08:55:16;2.20;;;1.30;;
40601;SDS011;26310;50.278;19.032;2022-07-25T09:00:22;1.10;;;1.00;;
40601;SDS011;26310;50.278;19.032;2022-07-25T09:05:27;1.40;;;0.90;;
40601;SDS011;26310;50.278;19.032;2022-07-25T09:10:32;2.08;;;1.50;;
40601;SDS011;26310;50.278;19.032;2022-07-25T09:15:38;2.35;;;1.40;;
40601;SDS011;26310;50.278;19.032;2022-07-25T09:20:54;1.85;;;1.30;;
40601;SDS011;26310;50.278;19.032;2022-07-25T09:31:05;2.30;;;1.30;;
40601;SDS011;26310;50.278;19.032;2022-07-25T09:36:10;1.10;;;0.82;;
40601;SDS011;26310;50.278;19.032;2022-07-25T09:41:14;1.45;;;1.23;;
40601;SDS011;26310;50.278;19.032;2022-07-25T09:46:17;1.30;;;1.10;;
40601;SDS011;26310;50.278;19.032;2022-07-25T09:51:31;1.30;;;1.00;;
40601;SDS011;26310;50.278;19.032;2022-07-25T09:56:35;1.92;;;1.50;;
40601;SDS011;26310;50.278;19.032;2022-07-25T10:01:38;1.55;;;1.00;;
40601;SDS011;26310;50.278;19.032;2022-07-25T10:12:10;1.88;;;1.40;;
40601;SDS011;26310;50.278;19.032;2022-07-25T10:17:21;1.45;;;1.27;;
40601;SDS011;26310;50.278;19.032;2022-07-25T10:22:34;1.30;;;0.95;;
40601;SDS011;26310;50.278;19.032;2022-07-25T10:27:58;1.67;;;1.23;;
40601;SDS011;26310;50.278;19.032;2022-07-25T10:33:14;2.67;;;1.70;;
40601;SDS011;26310;50.278;19.032;2022-07-25T10:38:26;1.52;;;0.98;;
40601;SDS011;26310;50.278;19.032;2022-07-25T10:43:34;1.20;;;0.82;;
40601;SDS011;26310;50.278;19.032;2022-07-25T10:48:38;1.30;;;0.82;;
40601;SDS011;26310;50.278;19.032;2022-07-25T10:58:52;1.98;;;1.35;;
40601;SDS011;26310;50.278;19.032;2022-07-25T11:04:00;1.10;;;0.90;;
40601;SDS011;26310;50.278;19.032;2022-07-25T11:09:16;1.30;;;1.10;;
40601;SDS011;26310;50.278;19.032;2022-07-25T11:19:34;1.00;;;0.90;;
40601;SDS011;26310;50.278;19.032;2022-07-25T11:29:46;1.58;;;1.00;;
40601;SDS011;26310;50.278;19.032;2022-07-25T11:34:49;1.20;;;0.98;;
40601;SDS011;26310;50.278;19.032;2022-07-25T11:39:54;1.20;;;0.90;;
40601;SDS011;26310;50.278;19.032;2022-07-25T11:44:57;1.02;;;0.90;;
40601;SDS011;26310;50.278;19.032;2022-07-25T11:50:02;1.20;;;1.00;;
40601;SDS011;26310;50.278;19.032;2022-07-25T11:55:06;0.98;;;0.80;;
40601;SDS011;26310;50.278;19.032;2022-07-25T12:00:16;2.08;;;1.10;;
40601;SDS011;26310;50.278;19.032;2022-07-25T12:05:20;1.15;;;0.90;;
40601;SDS011;26310;50.278;19.032;2022-07-25T12:10:33;1.15;;;0.80;;
40601;SDS011;26310;50.278;19.032;2022-07-25T12:15:37;0.82;;;0.70;;
40601;SDS011;26310;50.278;19.032;2022-07-25T12:20:41;0.85;;;0.65;;
40601;SDS011;26310;50.278;19.032;2022-07-25T12:25:45;2.55;;;1.10;;
40601;SDS011;26310;50.278;19.032;2022-07-25T12:30:48;1.65;;;0.85;;
40601;SDS011;26310;50.278;19.032;2022-07-25T12:35:57;1.58;;;0.80;;
40601;SDS011;26310;50.278;19.032;2022-07-25T12:41:07;0.88;;;0.68;;
40601;SDS011;26310;50.278;19.032;2022-07-25T12:46:09;1.20;;;1.08;;
40601;SDS011;26310;50.278;19.032;2022-07-25T12:51:12;1.27;;;0.80;;
40601;SDS011;26310;50.278;19.032;2022-07-25T12:56:15;1.50;;;1.02;;
40601;SDS011;26310;50.278;19.032;2022-07-25T13:01:18;1.67;;;1.00;;
40601;SDS011;26310;50.278;19.032;2022-07-25T13:06:20;3.33;;;1.00;;
40601;SDS011;26310;50.278;19.032;2022-07-25T13:11:23;1.40;;;1.02;;
40601;SDS011;26310;50.278;19.032;2022-07-25T13:16:26;1.40;;;0.90;;
40601;SDS011;26310;50.278;19.032;2022-07-25T13:21:29;1.85;;;0.98;;
40601;SDS011;26310;50.278;19.032;2022-07-25T13:26:32;1.98;;;1.10;;
40601;SDS011;26310;50.278;19.032;2022-07-25T13:31:35;1.35;;;1.00;;
40601;SDS011;26310;50.278;19.032;2022-07-25T13:36:39;0.90;;;0.80;;
40601;SDS011;26310;50.278;19.032;2022-07-25T13:41:41;0.95;;;0.70;;
40601;SDS011;26310;50.278;19.032;2022-07-25T13:46:44;1.55;;;0.70;;
40601;SDS011;26310;50.278;19.032;2022-07-25T13:51:50;1.20;;;0.80;;
40601;SDS011;26310;50.278;19.032;2022-07-25T13:56:53;1.02;;;0.80;;
40601;SDS011;26310;50.278;19.032;2022-07-25T14:01:55;1.85;;;0.80;;
40601;SDS011;26310;50.278;19.032;2022-07-25T14:06:59;1.98;;;1.00;;
40601;SDS011;26310;50.278;19.032;2022-07-25T14:12:02;1.40;;;0.90;;
40601;SDS011;26310;50.278;19.032;2022-07-25T14:17:05;1.40;;;1.15;;
40601;SDS011;26310;50.278;19.032;2022-07-25T14:22:08;1.27;;;0.80;;
40601;SDS011;26310;50.278;19.032;2022-07-25T14:27:11;1.00;;;0.60;;
40601;SDS011;26310;50.278;19.032;2022-07-25T14:32:14;1.50;;;1.20;;
40601;SDS011;26310;50.278;19.032;2022-07-25T14:37:17;0.98;;;0.68;;
40601;SDS011;26310;50.278;19.032;2022-07-25T14:42:20;1.30;;;0.90;;
40601;SDS011;26310;50.278;19.032;2022-07-25T14:47:23;1.10;;;0.80;;
40601;SDS011;26310;50.278;19.032;2022-07-25T14:52:28;1.67;;;1.10;;
40601;SDS011;26310;50.278;19.032;2022-07-25T14:57:30;2.10;;;1.40;;
40601;SDS011;26310;50.278;19.032;2022-07-25T15:02:33;1.13;;;0.80;;
40601;SDS011;26310;50.278;19.032;2022-07-25T15:07:36;1.48;;;0.80;;
40601;SDS011;26310;50.278;19.032;2022-07-25T15:12:39;1.17;;;0.90;;
40601;SDS011;26310;50.278;19.032;2022-07-25T15:17:42;0.80;;;0.73;;
40601;SDS011;26310;50.278;19.032;2022-07-25T15:22:44;1.20;;;0.70;;
40601;SDS011;26310;50.278;19.032;2022-07-25T15:27:47;1.35;;;0.90;;
40601;SDS011;26310;50.278;19.032;2022-07-25T15:32:50;1.00;;;0.80;;
40601;SDS011;26310;50.278;19.032;2022-07-25T15:37:53;0.90;;;0.70;;
40601;SDS011;26310;50.278;19.032;2022-07-25T15:42:56;1.00;;;0.80;;
40601;SDS011;26310;50.278;19.032;2022-07-25T15:48:00;1.00;;;0.75;;
40601;SDS011;26310;50.278;19.032;2022-07-25T15:53:04;1.00;;;0.75;;
40601;SDS011;26310;50.278;19.032;2022-07-25T15:58:07;1.00;;;0.73;;
40601;SDS011;26310;50.278;19.032;2022-07-25T16:03:11;1.15;;;0.75;;
40601;SDS011;26310;50.278;19.032;2022-07-25T16:08:14;1.13;;;0.68;;
40601;SDS011;26310;50.278;19.032;2022-07-25T16:13:17;0.98;;;0.85;;
40601;SDS011;26310;50.278;19.032;2022-07-25T16:18:20;0.60;;;0.50;;
40601;SDS011;26310;50.278;19.032;2022-07-25T16:23:23;1.02;;;0.82;;
40601;SDS011;26310;50.278;19.032;2022-07-25T16:28:28;1.08;;;0.80;;
40601;SDS011;26310;50.278;19.032;2022-07-25T16:33:31;1.08;;;0.80;;
40601;SDS011;26310;50.278;19.032;2022-07-25T16:38:34;0.90;;;0.68;;
40601;SDS011;26310;50.278;19.032;2022-07-25T16:43:37;1.00;;;0.80;;
40601;SDS011;26310;50.278;19.032;2022-07-25T16:48:40;0.90;;;0.80;;
40601;SDS011;26310;50.278;19.032;2022-07-25T16:53:43;1.08;;;0.70;;
40601;SDS011;26310;50.278;19.032;2022-07-25T16:58:45;1.45;;;0.90;;
40601;SDS011;26310;50.278;19.032;2022-07-25T17:03:48;1.67;;;0.90;;
40601;SDS011;26310;50.278;19.032;2022-07-25T17:08:51;1.20;;;0.90;;
40601;SDS011;26310;50.278;19.032;2022-07-25T17:13:53;1.65;;;1.00;;
40601;SDS011;26310;50.278;19.032;2022-07-25T17:18:56;1.20;;;0.73;;
40601;SDS011;26310;50.278;19.032;2022-07-25T17:23:59;1.00;;;0.90;;
40601;SDS011;26310;50.278;19.032;2022-07-25T17:29:04;0.90;;;0.70;;
40601;SDS011;26310;50.278;19.032;2022-07-25T17:34:09;1.25;;;0.95;;
40601;SDS011;26310;50.278;19.032;2022-07-25T17:39:11;1.27;;;0.93;;
40601;SDS011;26310;50.278;19.032;2022-07-25T17:44:14;4.25;;;2.83;;
40601;SDS011;26310;50.278;19.032;2022-07-25T17:49:18;4.25;;;2.47;;
40601;SDS011;26310;50.278;19.032;2022-07-25T17:54:22;5.07;;;3.03;;
40601;SDS011;26310;50.278;19.032;2022-07-25T17:59:25;7.25;;;4.80;;
40601;SDS011;26310;50.278;19.032;2022-07-25T18:04:27;8.38;;;5.15;;
40601;SDS011;26310;50.278;19.032;2022-07-25T18:09:31;7.93;;;4.80;;
40601;SDS011;26310;50.278;19.032;2022-07-25T18:14:34;7.60;;;4.18;;
40601;SDS011;26310;50.278;19.032;2022-07-25T18:19:36;4.75;;;2.90;;
40601;SDS011;26310;50.278;19.032;2022-07-25T18:24:39;3.80;;;2.40;;
40601;SDS011;26310;50.278;19.032;2022-07-25T18:29:42;2.22;;;1.88;;
40601;SDS011;26310;50.278;19.032;2022-07-25T18:34:45;3.28;;;1.90;;
40601;SDS011;26310;50.278;19.032;2022-07-25T18:39:48;2.70;;;2.00;;
40601;SDS011;26310;50.278;19.032;2022-07-25T18:44:50;5.40;;;1.90;;
40601;SDS011;26310;50.278;19.032;2022-07-25T18:49:53;4.10;;;2.00;;
40601;SDS011;26310;50.278;19.032;2022-07-25T18:54:56;2.55;;;1.48;;
40601;SDS011;26310;50.278;19.032;2022-07-25T18:59:59;3.13;;;1.67;;
40601;SDS011;26310;50.278;19.032;2022-07-25T19:05:04;3.92;;;2.10;;
40601;SDS011;26310;50.278;19.032;2022-07-25T19:10:09;7.13;;;3.70;;
40601;SDS011;26310;50.278;19.032;2022-07-25T19:15:11;6.55;;;3.20;;
40601;SDS011;26310;50.278;19.032;2022-07-25T19:20:14;8.82;;;3.20;;
40601;SDS011;26310;50.278;19.032;2022-07-25T19:25:17;6.53;;;2.67;;
40601;SDS011;26310;50.278;19.032;2022-07-25T19:30:20;5.07;;;2.05;;
40601;SDS011;26310;50.278;19.032;2022-07-25T19:35:23;3.03;;;2.00;;
40601;SDS011;26310;50.278;19.032;2022-07-25T19:40:27;3.38;;;2.30;;
40601;SDS011;26310;50.278;19.032;2022-07-25T19:45:29;6.13;;;2.50;;
40601;SDS011;26310;50.278;19.032;2022-07-25T19:50:33;2.88;;;2.10;;
40601;SDS011;26310;50.278;19.032;2022-07-25T19:55:35;3.75;;;2.05;;
40601;SDS011;26310;50.278;19.032;2022-07-25T20:00:38;5.47;;;2.08;;
40601;SDS011;26310;50.278;19.032;2022-07-25T20:05:41;3.25;;;2.40;;
40601;SDS011;26310;50.278;19.032;2022-07-25T20:10:45;6.32;;;2.78;;
40601;SDS011;26310;50.278;19.032;2022-07-25T20:15:48;3.25;;;1.80;;
40601;SDS011;26310;50.278;19.032;2022-07-25T20:20:51;3.83;;;2.15;;
40601;SDS011;26310;50.278;19.032;2022-07-25T20:25:54;3.03;;;1.90;;
40601;SDS011;26310;50.278;19.032;2022-07-25T20:30:57;3.35;;;2.20;;
40601;SDS011;26310;50.278;19.032;2022-07-25T20:36:00;3.80;;;2.20;;
40601;SDS011;26310;50.278;19.032;2022-07-25T20:41:03;3.38;;;2.10;;
40601;SDS011;26310;50.278;19.032;2022-07-25T20:46:06;4.30;;;2.13;;
40601;SDS011;26310;50.278;19.032;2022-07-25T20:51:10;2.70;;;2.20;;
40601;SDS011;26310;50.278;19.032;2022-07-25T20:56:13;3.15;;;2.25;;
40601;SDS011;26310;50.278;19.032;2022-07-25T21:01:16;3.58;;;2.10;;
40601;SDS011;26310;50.278;19.032;2022-07-25T21:06:19;3.30;;;2.17;;
40601;SDS011;26310;50.278;19.032;2022-07-25T21:11:28;2.92;;;2.13;;
40601;SDS011;26310;50.278;19.032;2022-07-25T21:16:31;3.10;;;2.42;;
40601;SDS011;26310;50.278;19.032;2022-07-25T21:21:34;3.60;;;2.28;;
40601;SDS011;26310;50.278;19.032;2022-07-25T21:26:37;4.80;;;2.22;;
40601;SDS011;26310;50.278;19.032;2022-07-25T21:31:39;2.58;;;2.10;;
40601;SDS011;26310;50.278;19.032;2022-07-25T21:36:42;3.22;;;2.60;;
40601;SDS011;26310;50.278;19.032;2022-07-25T21:41:45;3.75;;;2.70;;
40601;SDS011;26310;50.278;19.032;2022-07-25T21:46:55;5.10;;;2.95;;
40601;SDS011;26310;50.278;19.032;2022-07-25T21:51:58;2.65;;;2.10;;
40601;SDS011;26310;50.278;19.032;2022-07-25T21:57:01;3.85;;;2.50;;
40601;SDS011;26310;50.278;19.032;2022-07-25T22:02:04;3.85;;;2.38;;
40601;SDS011;26310;50.278;19.032;2022-07-25T22:07:18;2.92;;;2.20;;
40601;SDS011;26310;50.278;19.032;2022-07-25T22:12:21;6.15;;;2.67;;
40601;SDS011;26310;50.278;19.032;2022-07-25T22:17:24;3.60;;;2.63;;
40601;SDS011;26310;50.278;19.032;2022-07-25T22:22:47;3.50;;;2.47;;
40601;SDS011;26310;50.278;19.032;2022-07-25T22:27:50;5.45;;;2.28;;
40601;SDS011;26310;50.278;19.032;2022-07-25T22:32:53;3.10;;;2.47;;
40601;SDS011;26310;50.278;19.032;2022-07-25T22:37:55;3.83;;;2.45;;
40601;SDS011;26310;50.278;19.032;2022-07-25T22:42:58;4.45;;;2.45;;
40601;SDS011;26310;50.278;19.032;2022-07-25T22:48:01;4.38;;;2.70;;
40601;SDS011;26310;50.278;19.032;2022-07-25T22:53:04;6.13;;;2.65;;
40601;SDS011;26310;50.278;19.032;2022-07-25T22:58:07;4.85;;;2.50;;
40601;SDS011;26310;50.278;19.032;2022-07-25T23:03:10;4.90;;;2.67;;
40601;SDS011;26310;50.278;19.032;2022-07-25T23:08:13;3.60;;;2.63;;
40601;SDS011;26310;50.278;19.032;2022-07-25T23:13:17;6.50;;;2.65;;
40601;SDS011;26310;50.278;19.032;2022-07-25T23:18:20;3.55;;;2.40;;
40601;SDS011;26310;50.278;19.032;2022-07-25T23:23:23;3.15;;;2.30;;
40601;SDS011;26310;50.278;19.032;2022-07-25T23:28:26;7.03;;;2.63;;
40601;SDS011;26310;50.278;19.032;2022-07-25T23:33:28;4.25;;;2.70;;
40601;SDS011;26310;50.278;19.032;2022-07-25T23:38:31;2.60;;;2.30;;
40601;SDS011;26310;50.278;19.032;2022-07-25T23:43:34;3.13;;;2.38;;
40601;SDS011;26310;50.278;19.032;2022-07-25T23:48:57;3.05;;;2.40;;
40601;SDS011;26310;50.278;19.032;2022-07-25T23:54:01;2.92;;;2.42;;
40601;SDS011;26310;50.278;19.032;2022-07-25T23:59:04;3.28;;;2.45;;
